createdAt,value
2022-09-18T00:01:32.304Z,18.04
2022-09-18T00:04:02.597Z,18.06
2022-09-18T00:06:38.305Z,18.15
2022-09-18T00:09:08.957Z,18.01
2022-09-18T00:11:39.010Z,17.93
2022-09-18T00:14:16.308Z,17.97
2022-09-18T00:16:43.391Z,17.84
2022-09-18T00:19:11.546Z,17.99
2022-09-18T00:21:44.455Z,17.99
2022-09-18T00:24:12.002Z,17.93
2022-09-18T00:26:40.022Z,17.78
2022-09-18T00:29:09.412Z,17.57
2022-09-18T00:31:38.233Z,17.71
2022-09-18T00:34:11.110Z,17.64
2022-09-18T00:36:40.545Z,17.61
2022-09-18T00:39:08.747Z,17.68
2022-09-18T00:41:40.953Z,17.73
2022-09-18T00:44:31.489Z,17.71
2022-09-18T00:47:12.541Z,17.71
2022-09-18T00:49:51.313Z,17.62
2022-09-18T00:52:23.541Z,17.45
2022-09-18T00:54:55.147Z,17.53
2022-09-18T00:57:30.277Z,17.71
2022-09-18T00:59:58.477Z,17.65
2022-09-18T01:02:25.183Z,17.63
2022-09-18T01:04:53.353Z,17.60
2022-09-18T01:07:47.948Z,17.85
2022-09-18T01:10:48.213Z,17.62
2022-09-18T01:13:50.921Z,17.63
2022-09-18T01:16:45.139Z,17.81
2022-09-18T01:19:26.932Z,17.84
2022-09-18T01:22:31.185Z,17.87
2022-09-18T01:25:16.957Z,17.73
2022-09-18T01:28:08.834Z,17.75
2022-09-18T01:30:41.840Z,17.71
2022-09-18T01:33:19.629Z,17.52
2022-09-18T01:35:52.838Z,17.58
2022-09-18T01:38:21.968Z,17.78
2022-09-18T01:40:54.348Z,17.72
2022-09-18T01:43:23.193Z,17.52
2022-09-18T01:45:54.496Z,17.48
2022-09-18T01:49:02.532Z,17.34
2022-09-18T01:51:52.685Z,17.33
2022-09-18T01:54:24.970Z,17.28
2022-09-18T01:57:10.447Z,17.36
2022-09-18T01:59:42.926Z,17.15
2022-09-18T02:02:17.297Z,17.43
2022-09-18T02:04:52.530Z,17.35
2022-09-18T02:07:29.816Z,17.35
2022-09-18T02:10:02.623Z,17.15
2022-09-18T02:12:33.145Z,17.20
2022-09-18T02:15:03.466Z,17.26
2022-09-18T02:17:39.461Z,17.23
2022-09-18T02:20:15.982Z,17.26
2022-09-18T02:22:46.548Z,17.23
2022-09-18T02:25:18.898Z,17.19
2022-09-18T02:27:47.711Z,17.14
2022-09-18T02:30:15.578Z,16.97
2022-09-18T02:32:42.234Z,16.91
2022-09-18T02:35:10.367Z,17.10
2022-09-18T02:38:01.186Z,17.13
2022-09-18T02:40:46.721Z,17.20
2022-09-18T02:43:32.258Z,17.20
2022-09-18T02:46:20.321Z,17.02
2022-09-18T02:49:15.232Z,17.04
2022-09-18T02:52:03.384Z,17.06
2022-09-18T02:54:47.169Z,16.97
2022-09-18T02:57:25.684Z,17.03
2022-09-18T03:00:01.839Z,16.97
2022-09-18T03:02:29.196Z,17.10
2022-09-18T03:04:56.223Z,16.91
2022-09-18T03:07:24.098Z,16.93
2022-09-18T03:09:50.723Z,16.98
2022-09-18T03:12:17.388Z,16.96
2022-09-18T03:14:44.110Z,16.99
2022-09-18T03:17:11.664Z,16.88
2022-09-18T03:19:38.483Z,16.99
2022-09-18T03:22:07.797Z,17.19
2022-09-18T03:24:38.124Z,17.37
2022-09-18T03:27:05.587Z,17.30
2022-09-18T03:29:32.237Z,17.19
2022-09-18T03:32:01.484Z,17.12
2022-09-18T03:34:29.357Z,17.33
2022-09-18T03:36:55.981Z,17.37
2022-09-18T03:39:22.709Z,17.27
2022-09-18T03:41:49.401Z,17.17
2022-09-18T03:44:16.031Z,17.21
2022-09-18T03:46:42.698Z,17.20
2022-09-18T03:49:09.355Z,17.20
2022-09-18T03:51:35.990Z,16.97
2022-09-18T03:54:02.663Z,16.86
2022-09-18T03:56:29.524Z,17.08
2022-09-18T03:58:56.152Z,16.85
2022-09-18T04:01:22.932Z,16.79
2022-09-18T04:03:50.185Z,16.70
2022-09-18T04:06:17.366Z,16.60
2022-09-18T04:08:43.981Z,16.42
2022-09-18T04:11:15.958Z,16.42
2022-09-18T04:13:42.704Z,16.44
2022-09-18T04:16:09.615Z,16.42
2022-09-18T04:18:38.831Z,16.45
2022-09-18T04:21:05.662Z,16.54
2022-09-18T04:23:35.515Z,16.34
2022-09-18T04:26:09.376Z,16.48
2022-09-18T04:28:39.075Z,16.35
2022-09-18T04:31:06.064Z,16.41
2022-09-18T04:33:35.049Z,16.61
2022-09-18T04:36:01.880Z,16.65
2022-09-18T04:38:29.568Z,16.77
2022-09-18T04:40:57.566Z,16.81
2022-09-18T04:43:25.076Z,17.16
2022-09-18T04:45:52.794Z,17.04
2022-09-18T04:48:20.301Z,17.11
2022-09-18T04:50:47.830Z,17.31
2022-09-18T04:53:15.438Z,17.13
2022-09-18T04:55:46.541Z,17.39
2022-09-18T04:58:15.108Z,17.37
2022-09-18T05:00:42.254Z,17.16
2022-09-18T05:03:09.582Z,17.14
2022-09-18T05:05:36.354Z,16.99
2022-09-18T05:08:03.670Z,17.30
2022-09-18T05:10:30.972Z,17.08
2022-09-18T05:13:00.669Z,17.00
2022-09-18T05:15:28.016Z,17.20
2022-09-18T05:18:02.247Z,17.12
2022-09-18T05:20:30.214Z,17.27
2022-09-18T05:22:57.653Z,17.62
2022-09-18T05:25:29.799Z,17.71
2022-09-18T05:27:58.637Z,17.83
2022-09-18T05:30:26.806Z,17.82
2022-09-18T05:33:02.243Z,17.84
2022-09-18T05:35:31.260Z,18.04
2022-09-18T05:37:58.183Z,17.59
2022-09-18T05:40:27.911Z,17.70
2022-09-18T05:42:57.762Z,17.50
2022-09-18T05:45:25.129Z,17.39
2022-09-18T05:48:03.664Z,17.41
2022-09-18T05:50:31.165Z,17.58
2022-09-18T05:53:09.796Z,17.59
2022-09-18T05:55:41.089Z,17.53
2022-09-18T05:58:14.896Z,17.60
2022-09-18T06:00:44.915Z,17.69
2022-09-18T06:03:13.843Z,17.34
2022-09-18T06:05:53.858Z,17.29
2022-09-18T06:08:21.921Z,17.33
2022-09-18T06:10:48.913Z,17.07
2022-09-18T06:13:18.227Z,16.88
2022-09-18T06:15:52.580Z,16.77
2022-09-18T06:18:21.926Z,17.17
2022-09-18T06:20:59.021Z,17.21
2022-09-18T06:23:27.231Z,17.04
2022-09-18T06:26:00.500Z,16.98
2022-09-18T06:28:28.115Z,17.03
2022-09-18T06:30:56.005Z,16.79
2022-09-18T06:33:24.283Z,16.94
2022-09-18T06:35:54.148Z,17.04
2022-09-18T06:38:21.006Z,16.99
2022-09-18T06:40:50.706Z,17.10
2022-09-18T06:43:20.414Z,17.09
2022-09-18T06:45:55.235Z,16.88
2022-09-18T06:48:29.782Z,16.89
2022-09-18T06:50:59.651Z,17.06
2022-09-18T06:53:26.961Z,16.97
2022-09-18T06:56:03.566Z,17.05
2022-09-18T06:58:30.475Z,16.97
2022-09-18T07:01:01.592Z,17.00
2022-09-18T07:03:29.629Z,16.83
2022-09-18T07:05:56.329Z,16.83
2022-09-18T07:08:25.354Z,17.11
2022-09-18T07:10:52.444Z,17.16
2022-09-18T07:13:19.147Z,17.23
2022-09-18T07:15:48.483Z,17.08
2022-09-18T07:18:15.160Z,17.07
2022-09-18T07:20:41.847Z,17.03
2022-09-18T07:23:09.519Z,17.22
2022-09-18T07:25:36.355Z,17.00
2022-09-18T07:28:11.313Z,17.18
2022-09-18T07:30:40.212Z,16.89
2022-09-18T07:33:10.010Z,17.08
2022-09-18T07:35:39.219Z,16.78
2022-09-18T07:38:07.474Z,16.96
2022-09-18T07:40:34.992Z,17.15
2022-09-18T07:43:03.271Z,17.23
2022-09-18T07:45:30.529Z,17.37
2022-09-18T07:47:57.425Z,17.42
2022-09-18T07:50:24.057Z,17.52
2022-09-18T07:52:56.514Z,17.76
2022-09-18T07:55:24.414Z,17.69
2022-09-18T07:58:01.915Z,17.97
2022-09-18T08:00:35.130Z,17.91
2022-09-18T08:03:21.880Z,17.80
2022-09-18T08:05:50.529Z,17.66
2022-09-18T08:08:17.233Z,17.67
2022-09-18T08:10:45.248Z,17.73
2022-09-18T08:13:14.235Z,17.70
2022-09-18T08:15:46.007Z,17.91
2022-09-18T08:18:12.738Z,17.59
2022-09-18T08:20:39.450Z,18.11
2022-09-18T08:23:11.589Z,18.34
2022-09-18T08:25:38.726Z,18.31
2022-09-18T08:28:07.216Z,18.56
2022-09-18T08:30:35.343Z,19.09
2022-09-18T08:33:06.815Z,19.31
2022-09-18T08:35:37.927Z,19.39
2022-09-18T08:38:04.937Z,20.04
2022-09-18T08:41:01.838Z,20.51
2022-09-18T08:43:28.488Z,20.91
2022-09-18T08:46:12.066Z,21.18
2022-09-18T08:48:46.299Z,20.83
2022-09-18T08:51:15.899Z,20.76
2022-09-18T08:53:48.686Z,20.77
2022-09-18T08:56:24.794Z,20.83
2022-09-18T08:59:06.296Z,20.46
2022-09-18T09:01:45.867Z,20.36
2022-09-18T09:04:25.159Z,20.03
2022-09-18T09:07:29.979Z,20.16
2022-09-18T09:10:24.164Z,20.35
2022-09-18T09:13:19.152Z,20.18
2022-09-18T09:16:13.840Z,19.93
2022-09-18T09:19:08.303Z,19.61
2022-09-18T09:22:06.160Z,19.65
2022-09-18T09:24:34.201Z,19.46
2022-09-18T09:27:10.705Z,19.38
2022-09-18T09:29:43.957Z,19.32
2022-09-18T09:32:28.112Z,19.28
2022-09-18T09:35:05.313Z,19.39
2022-09-18T09:37:43.714Z,19.52
2022-09-18T09:40:37.721Z,19.43
2022-09-18T09:43:16.733Z,19.79
2022-09-18T09:45:52.057Z,19.83
2022-09-18T09:48:21.505Z,19.98
2022-09-18T09:50:59.515Z,20.00
2022-09-18T09:53:27.993Z,19.94
2022-09-18T09:58:59.263Z,20.32
2022-09-18T10:01:35.801Z,20.32
2022-09-18T10:04:15.769Z,20.68
2022-09-18T10:07:23.948Z,21.23
2022-09-18T10:10:03.478Z,21.76
2022-09-18T10:12:50.626Z,21.88
2022-09-18T10:15:25.851Z,22.62
2022-09-18T10:17:57.083Z,23.26
2022-09-18T10:20:30.082Z,23.55
2022-09-18T10:23:06.156Z,23.84
2022-09-18T10:26:02.326Z,24.13
2022-09-18T10:28:29.776Z,24.03
2022-09-18T10:31:14.656Z,24.61
2022-09-18T10:33:45.634Z,24.28
2022-09-18T10:36:41.602Z,23.09
2022-09-18T10:39:37.676Z,23.54
2022-09-18T10:42:06.392Z,23.92
2022-09-18T10:44:50.978Z,24.12
2022-09-18T10:47:18.918Z,24.35
2022-09-18T10:49:51.685Z,24.55
2022-09-18T10:52:32.625Z,24.69
2022-09-18T10:55:06.425Z,24.80
2022-09-18T10:57:40.348Z,25.11
2022-09-18T11:00:13.195Z,25.10
2022-09-18T11:02:44.844Z,24.57
2022-09-18T11:05:20.179Z,24.80
2022-09-18T11:08:00.269Z,24.83
2022-09-18T11:10:33.263Z,24.74
2022-09-18T11:13:02.871Z,24.57
2022-09-18T11:15:32.257Z,24.81
2022-09-18T11:18:06.544Z,24.65
2022-09-18T11:20:43.088Z,24.84
2022-09-18T11:23:20.885Z,24.95
2022-09-18T11:25:47.778Z,24.93
2022-09-18T11:28:23.495Z,24.20
2022-09-18T11:31:02.227Z,23.88
2022-09-18T11:33:52.969Z,23.54
2022-09-18T11:36:32.328Z,23.35
2022-09-18T11:39:01.813Z,23.22
2022-09-18T11:41:35.206Z,22.95
2022-09-18T11:44:15.327Z,22.85
2022-09-18T11:47:14.396Z,22.66
2022-09-18T11:52:44.029Z,22.64
2022-09-18T11:55:35.270Z,22.69
2022-09-18T11:58:10.085Z,22.65
2022-09-18T12:00:44.378Z,22.57
2022-09-18T12:03:27.299Z,22.93
2022-09-18T12:06:23.199Z,23.46
2022-09-18T12:08:54.224Z,24.02
2022-09-18T12:11:23.259Z,25.25
2022-09-18T12:14:20.580Z,26.05
2022-09-18T12:17:00.262Z,26.40
2022-09-18T12:19:40.625Z,28.63
2022-09-18T12:22:15.898Z,29.85
2022-09-18T12:24:42.661Z,30.59
2022-09-18T12:27:15.473Z,31.85
2022-09-18T12:29:50.589Z,31.89
2022-09-18T12:32:35.892Z,33.57
2022-09-18T12:35:12.898Z,33.47
2022-09-18T12:38:10.813Z,33.95
2022-09-18T12:40:56.794Z,33.27
2022-09-18T12:43:52.588Z,31.51
2022-09-18T12:47:00.323Z,30.04
2022-09-18T12:50:07.692Z,28.49
2022-09-18T12:53:09.045Z,26.76
2022-09-18T12:56:16.810Z,26.01
2022-09-18T12:59:11.120Z,25.27
2022-09-18T13:01:57.255Z,24.65
2022-09-18T13:04:30.745Z,24.39
2022-09-18T13:07:06.224Z,24.21
2022-09-18T13:09:58.765Z,23.99
2022-09-18T13:12:35.348Z,23.74
2022-09-18T13:15:10.413Z,23.26
2022-09-18T13:17:50.825Z,23.26
2022-09-18T13:20:30.990Z,23.03
2022-09-18T13:23:00.610Z,22.90
2022-09-18T13:25:37.741Z,22.84
2022-09-18T13:28:11.673Z,22.91
2022-09-18T13:30:38.865Z,22.79
2022-09-18T13:33:05.776Z,22.51
2022-09-18T13:35:35.680Z,22.30
2022-09-18T13:38:10.334Z,22.07
2022-09-18T13:40:40.966Z,22.21
2022-09-18T13:43:46.788Z,22.37
2022-09-18T13:46:50.482Z,22.13
2022-09-18T13:49:32.871Z,21.91
2022-09-18T13:52:37.980Z,21.78
2022-09-18T13:55:13.402Z,21.69
2022-09-18T13:57:43.397Z,21.60
2022-09-18T14:00:24.183Z,21.64
2022-09-18T14:03:12.850Z,21.53
2022-09-18T14:05:42.041Z,21.52
2022-09-18T14:08:24.307Z,21.57
2022-09-18T14:11:17.643Z,21.34
2022-09-18T14:13:54.630Z,20.97
2022-09-18T14:16:22.441Z,21.00
2022-09-18T14:18:49.154Z,20.94
2022-09-18T14:21:18.927Z,21.06
2022-09-18T14:23:50.467Z,20.87
2022-09-18T14:26:32.358Z,20.90
2022-09-18T14:32:22.555Z,20.69
2022-09-18T14:35:18.444Z,20.63
2022-09-18T14:37:45.690Z,20.46
2022-09-18T14:40:20.920Z,20.45
2022-09-18T14:42:48.736Z,20.55
2022-09-18T14:45:22.744Z,20.51
2022-09-18T14:47:51.550Z,20.35
2022-09-18T14:50:21.064Z,20.39
2022-09-18T14:52:47.832Z,20.15
2022-09-18T14:55:23.193Z,20.12
2022-09-18T14:57:59.168Z,20.16
2022-09-18T15:00:30.129Z,19.89
2022-09-18T15:03:20.544Z,19.88
2022-09-18T15:05:51.575Z,19.76
2022-09-18T15:08:26.499Z,19.65
2022-09-18T15:10:56.695Z,19.68
2022-09-18T15:13:24.265Z,19.52
2022-09-18T15:16:00.845Z,19.56
2022-09-18T15:18:30.874Z,19.52
2022-09-18T15:21:01.718Z,19.42
2022-09-18T15:23:32.675Z,19.48
2022-09-18T15:26:05.500Z,19.44
2022-09-18T15:28:36.322Z,19.48
2022-09-18T15:31:08.519Z,19.43
2022-09-18T15:33:38.280Z,19.45
2022-09-18T15:36:28.263Z,19.37
2022-09-18T15:38:57.431Z,19.34
2022-09-18T15:41:36.097Z,19.21
2022-09-18T15:44:03.695Z,19.16
2022-09-18T15:46:38.773Z,19.07
2022-09-18T15:49:29.693Z,19.01
2022-09-18T15:51:58.638Z,18.91
2022-09-18T15:54:27.278Z,18.89
2022-09-18T15:56:57.753Z,18.82
2022-09-18T15:59:32.308Z,18.72
2022-09-18T16:02:08.190Z,18.74
2022-09-18T16:04:35.922Z,18.54
2022-09-18T16:07:22.889Z,18.62
2022-09-18T16:09:52.916Z,18.35
2022-09-18T16:12:37.696Z,18.40
2022-09-18T16:15:25.595Z,18.32
2022-09-18T16:17:54.749Z,18.20
2022-09-18T16:20:23.411Z,18.05
2022-09-18T16:22:51.778Z,18.01
2022-09-18T16:25:21.820Z,17.98
2022-09-18T16:27:56.780Z,17.92
2022-09-18T16:30:24.365Z,17.84
2022-09-18T16:33:05.287Z,17.78
2022-09-18T16:35:31.873Z,17.67
2022-09-18T16:37:58.467Z,17.55
2022-09-18T16:40:27.622Z,17.54
2022-09-18T16:43:00.588Z,17.35
2022-09-18T16:45:28.953Z,17.35
2022-09-18T16:48:00.653Z,17.38
2022-09-18T16:50:27.994Z,17.33
2022-09-18T16:52:58.501Z,17.23
2022-09-18T16:55:29.357Z,17.19
2022-09-18T16:57:59.402Z,17.09
2022-09-18T17:00:26.207Z,16.90
2022-09-18T17:02:55.472Z,16.94
2022-09-18T17:05:22.123Z,16.71
2022-09-18T17:07:48.703Z,16.81
2022-09-18T17:10:15.596Z,16.72
2022-09-18T17:12:43.555Z,16.70
2022-09-18T17:15:10.624Z,16.55
2022-09-18T17:17:40.769Z,16.56
2022-09-18T17:20:16.076Z,16.59
2022-09-18T17:22:47.596Z,16.42
2022-09-18T17:25:15.370Z,16.44
2022-09-18T17:27:43.898Z,16.51
2022-09-18T17:30:12.178Z,16.35
2022-09-18T17:32:39.704Z,16.20
2022-09-18T17:35:06.894Z,16.26
2022-09-18T17:37:33.591Z,16.21
2022-09-18T17:40:01.625Z,16.00
2022-09-18T17:42:30.406Z,16.12
2022-09-18T17:44:59.834Z,16.15
2022-09-18T17:47:27.025Z,16.05
2022-09-18T17:49:54.308Z,16.01
2022-09-18T17:52:21.078Z,16.10
2022-09-18T17:54:49.066Z,15.89
2022-09-18T17:57:18.171Z,15.89
2022-09-18T17:59:45.143Z,15.89
2022-09-18T18:02:13.909Z,15.98
2022-09-18T18:04:40.582Z,15.90
2022-09-18T18:07:07.282Z,15.76
2022-09-18T18:09:36.443Z,15.93
2022-09-18T18:12:05.148Z,15.82
2022-09-18T18:14:32.176Z,15.90
2022-09-18T18:17:00.883Z,15.61
2022-09-18T18:19:30.693Z,15.71
2022-09-18T18:21:57.481Z,15.71
2022-09-18T18:24:24.319Z,15.67
2022-09-18T18:26:52.552Z,15.55
2022-09-18T18:29:19.699Z,15.82
2022-09-18T18:31:53.923Z,15.76
2022-09-18T18:34:22.194Z,15.54
2022-09-18T18:36:51.066Z,15.76
2022-09-18T18:39:21.331Z,15.69
2022-09-18T18:41:48.587Z,15.52
2022-09-18T18:44:18.571Z,15.73
2022-09-18T18:46:45.336Z,15.61
2022-09-18T18:49:15.044Z,15.67
2022-09-18T18:51:48.907Z,15.78
2022-09-18T18:54:23.169Z,15.61
2022-09-18T18:56:51.832Z,15.60
2022-09-18T18:59:25.592Z,15.48
2022-09-18T19:01:58.111Z,15.74
2022-09-18T19:04:25.930Z,15.49
2022-09-18T19:06:57.152Z,15.51
2022-09-18T19:09:30.958Z,15.67
2022-09-18T19:12:01.521Z,15.66
2022-09-18T19:14:36.289Z,15.52
2022-09-18T19:17:02.944Z,15.62
2022-09-18T19:19:32.177Z,15.62
2022-09-18T19:22:02.039Z,15.60
2022-09-18T19:24:30.115Z,15.60
2022-09-18T19:26:57.595Z,15.47
2022-09-18T19:29:24.411Z,15.49
2022-09-18T19:31:54.381Z,15.64
2022-09-18T19:34:22.638Z,15.59
2022-09-18T19:36:51.129Z,15.58
2022-09-18T19:39:24.686Z,15.66
2022-09-18T19:41:56.581Z,15.62
2022-09-18T19:44:47.204Z,15.62
2022-09-18T19:47:28.075Z,15.60
2022-09-18T19:49:59.555Z,15.44
2022-09-18T19:52:29.161Z,15.75
2022-09-18T19:54:57.665Z,15.63
2022-09-18T19:57:27.516Z,15.61
2022-09-18T19:59:58.616Z,15.52
2022-09-18T20:02:25.782Z,15.41
2022-09-18T20:05:02.036Z,15.73
2022-09-18T20:07:29.316Z,15.53
2022-09-18T20:09:56.029Z,15.59
2022-09-18T20:12:22.726Z,15.58
2022-09-18T20:14:52.100Z,15.49
2022-09-18T20:17:21.916Z,15.55
2022-09-18T20:19:48.570Z,15.50
2022-09-18T20:22:15.337Z,15.39
2022-09-18T20:24:42.140Z,15.33
2022-09-18T20:27:10.133Z,15.45
2022-09-18T20:29:37.736Z,15.37
2022-09-18T20:32:04.397Z,15.36
2022-09-18T20:34:31.056Z,15.45
2022-09-18T20:36:58.017Z,15.42
2022-09-18T20:39:24.755Z,15.53
2022-09-18T20:41:51.573Z,15.44
2022-09-18T20:44:19.640Z,15.49
2022-09-18T20:46:46.554Z,15.31
2022-09-18T20:49:17.601Z,15.43
2022-09-18T20:51:44.361Z,15.23
2022-09-18T20:54:14.353Z,15.44
2022-09-18T20:56:43.643Z,15.28
2022-09-18T20:59:12.400Z,15.02
2022-09-18T21:01:47.192Z,14.88
2022-09-18T21:04:19.560Z,14.65
2022-09-18T21:06:49.142Z,14.45
2022-09-18T21:09:16.055Z,14.20
2022-09-18T21:11:45.014Z,13.81
2022-09-18T21:14:15.469Z,13.94
2022-09-18T21:16:45.604Z,13.80
2022-09-18T21:19:14.063Z,14.01
2022-09-18T21:21:41.326Z,13.81
2022-09-18T21:24:09.478Z,13.75
2022-09-18T21:26:43.507Z,13.72
2022-09-18T21:29:18.417Z,13.83
2022-09-18T21:31:46.625Z,13.75
2022-09-18T21:34:15.921Z,13.80
2022-09-18T21:36:46.280Z,13.83
2022-09-18T21:39:17.689Z,13.83
2022-09-18T21:41:47.618Z,13.59
2022-09-18T21:44:16.645Z,13.64
2022-09-18T21:46:51.356Z,13.45
2022-09-18T21:49:19.246Z,13.47
2022-09-18T21:51:46.956Z,13.43
2022-09-18T21:54:19.831Z,13.65
2022-09-18T21:56:57.420Z,13.62
2022-09-18T21:59:27.342Z,13.63
2022-09-18T22:01:57.864Z,13.53
2022-09-18T22:04:29.132Z,13.56
2022-09-18T22:06:57.383Z,13.39
2022-09-18T22:09:38.977Z,13.18
2022-09-18T22:12:09.866Z,13.09
2022-09-18T22:14:38.356Z,13.07
2022-09-18T22:17:07.786Z,13.16
2022-09-18T22:19:39.304Z,12.84
2022-09-18T22:22:08.029Z,12.89
2022-09-18T22:24:34.713Z,13.00
2022-09-18T22:27:06.058Z,13.07
2022-09-18T22:29:34.844Z,13.16
2022-09-18T22:32:02.000Z,13.07
2022-09-18T22:34:31.141Z,13.03
2022-09-18T22:37:02.349Z,12.97
2022-09-18T22:39:29.559Z,12.98
2022-09-18T22:41:56.559Z,12.98
2022-09-18T22:44:23.510Z,12.97
2022-09-18T22:46:52.587Z,12.93
2022-09-18T22:49:22.858Z,12.98
2022-09-18T22:51:50.832Z,12.87
2022-09-18T22:54:28.522Z,12.77
2022-09-18T22:56:56.961Z,12.80
2022-09-18T22:59:27.211Z,12.83
2022-09-18T23:02:00.796Z,13.08
2022-09-18T23:04:29.939Z,13.20
2022-09-18T23:06:58.001Z,13.00
2022-09-18T23:09:30.666Z,13.41
2022-09-18T23:11:58.129Z,13.40
2022-09-18T23:14:28.147Z,13.42
2022-09-18T23:17:21.913Z,13.34
2022-09-18T23:19:48.512Z,13.13
2022-09-18T23:22:22.157Z,13.07
2022-09-18T23:24:52.182Z,13.31
2022-09-18T23:27:20.611Z,13.08
2022-09-18T23:29:48.906Z,13.31
2022-09-18T23:32:15.519Z,13.17
2022-09-18T23:34:42.324Z,13.20
2022-09-18T23:37:09.118Z,13.16
2022-09-18T23:39:35.813Z,13.18
2022-09-18T23:42:05.885Z,13.30
2022-09-18T23:44:33.111Z,13.37
2022-09-18T23:47:02.362Z,13.42
2022-09-18T23:49:30.260Z,13.36
2022-09-18T23:51:57.310Z,13.34
2022-09-18T23:54:28.770Z,13.24
2022-09-18T23:56:55.649Z,12.98
2022-09-18T23:59:24.707Z,13.20
